createdAt,value
2022-08-09T00:00:23.200Z,21.40
2022-08-09T00:02:53.067Z,21.30
2022-08-09T00:06:16.125Z,21.30
2022-08-09T00:08:11.304Z,21.20
2022-08-09T00:10:40.248Z,21.10
2022-08-09T00:13:17.583Z,21.10
2022-08-09T00:15:59.363Z,21.10
2022-08-09T00:18:31.360Z,21.00
2022-08-09T00:21:04.776Z,21.00
2022-08-09T00:23:54.768Z,21.00
2022-08-09T00:26:18.739Z,21.00
2022-08-09T00:28:52.175Z,21.00
2022-08-09T00:31:57.599Z,21.00
2022-08-09T00:34:19.511Z,21.00
2022-08-09T00:36:47.511Z,21.10
2022-08-09T00:40:09.301Z,21.00
2022-08-09T00:44:11.018Z,20.90
2022-08-09T00:44:50.254Z,20.90
2022-08-09T00:47:21.670Z,20.90
2022-08-09T00:49:56.795Z,20.90
2022-08-09T00:52:30.627Z,20.80
2022-08-09T00:55:00.251Z,20.80
2022-08-09T00:57:34.991Z,20.80
2022-08-09T01:00:21.986Z,20.80
2022-08-09T01:03:45.591Z,20.80
2022-08-09T01:06:25.504Z,20.70
2022-08-09T01:09:23.316Z,20.70
2022-08-09T01:11:55.914Z,20.70
2022-08-09T01:14:52.414Z,20.70
2022-08-09T01:17:47.101Z,20.60
2022-08-09T01:20:53.383Z,20.60
2022-08-09T01:24:00.970Z,20.50
2022-08-09T01:26:53.937Z,20.50
2022-08-09T01:29:29.421Z,20.50
2022-08-09T01:32:43.965Z,20.40
2022-08-09T01:35:17.988Z,20.30
2022-08-09T01:38:09.783Z,20.30
2022-08-09T01:40:52.782Z,20.30
2022-08-09T01:43:41.965Z,20.30
2022-08-09T01:46:26.902Z,20.30
2022-08-09T01:48:59.684Z,20.30
2022-08-09T01:51:33.026Z,20.20
2022-08-09T01:54:03.937Z,20.20
2022-08-09T01:56:33.347Z,20.20
2022-08-09T01:59:03.870Z,20.20
2022-08-09T02:01:58.588Z,20.10
2022-08-09T02:04:24.745Z,20.10
2022-08-09T02:07:17.895Z,20.10
2022-08-09T02:10:01.457Z,20.00
2022-08-09T02:12:35.356Z,20.00
2022-08-09T02:15:06.415Z,19.90
2022-08-09T02:18:00.488Z,19.80
2022-08-09T02:20:25.110Z,19.90
2022-08-09T02:22:53.479Z,19.90
2022-08-09T02:25:41.885Z,19.80
2022-08-09T02:28:18.066Z,19.80
2022-08-09T02:30:51.901Z,19.70
2022-08-09T02:33:38.199Z,19.70
2022-08-09T02:36:22.729Z,19.60
2022-08-09T02:38:59.317Z,19.60
2022-08-09T02:41:42.094Z,19.60
2022-08-09T02:44:19.884Z,19.50
2022-08-09T02:47:06.930Z,19.50
2022-08-09T02:49:41.913Z,19.40
2022-08-09T02:52:13.555Z,19.40
2022-08-09T02:54:53.918Z,19.30
2022-08-09T02:57:24.929Z,19.30
2022-08-09T03:00:21.257Z,19.30
2022-08-09T03:02:59.810Z,19.20
2022-08-09T03:05:28.638Z,19.20
2022-08-09T03:07:56.214Z,19.10
2022-08-09T03:10:27.717Z,19.10
2022-08-09T03:13:00.312Z,19.10
2022-08-09T03:16:04.673Z,19.00
2022-08-09T03:18:19.209Z,19.00
2022-08-09T03:20:59.506Z,18.90
2022-08-09T03:23:29.899Z,18.80
2022-08-09T03:26:04.817Z,18.80
2022-08-09T03:28:36.554Z,18.70
2022-08-09T03:31:17.918Z,18.70
2022-08-09T03:33:53.936Z,18.70
2022-08-09T03:36:22.305Z,18.60
2022-08-09T03:38:55.094Z,18.60
2022-08-09T03:41:44.670Z,18.60
2022-08-09T03:44:16.903Z,18.60
2022-08-09T03:46:49.532Z,18.50
2022-08-09T03:49:21.579Z,18.50
2022-08-09T03:52:00.078Z,18.50
2022-08-09T03:54:32.770Z,18.40
2022-08-09T03:57:04.410Z,18.40
2022-08-09T03:59:53.458Z,18.30
2022-08-09T04:02:26.512Z,18.30
2022-08-09T04:05:05.822Z,18.20
2022-08-09T04:07:52.262Z,18.20
2022-08-09T04:10:29.745Z,18.10
2022-08-09T04:13:00.681Z,18.10
2022-08-09T04:15:52.529Z,18.10
2022-08-09T04:18:19.236Z,18.10
2022-08-09T04:20:47.966Z,18.00
2022-08-09T04:23:23.290Z,18.00
2022-08-09T04:25:53.088Z,18.00
2022-08-09T04:28:33.734Z,17.90
2022-08-09T04:31:07.762Z,17.90
2022-08-09T04:33:51.638Z,17.90
2022-08-09T04:36:24.245Z,17.90
2022-08-09T04:38:54.124Z,17.90
2022-08-09T04:41:23.662Z,17.90
2022-08-09T04:44:05.620Z,17.80
2022-08-09T04:46:56.684Z,17.80
2022-08-09T04:49:40.163Z,17.80
2022-08-09T04:52:22.315Z,17.80
2022-08-09T04:54:56.900Z,17.70
2022-08-09T04:57:26.817Z,17.70
2022-08-09T05:00:13.964Z,17.70
2022-08-09T05:02:44.177Z,17.70
2022-08-09T05:05:31.382Z,17.60
2022-08-09T05:08:02.250Z,17.60
2022-08-09T05:10:31.601Z,17.60
2022-08-09T05:12:58.884Z,17.60
2022-08-09T05:15:39.260Z,17.60
2022-08-09T05:18:42.265Z,17.60
2022-08-09T05:21:10.040Z,17.60
2022-08-09T05:23:55.733Z,17.60
2022-08-09T05:26:36.666Z,17.70
2022-08-09T05:29:21.561Z,17.70
2022-08-09T05:31:57.186Z,17.70
2022-08-09T05:34:32.368Z,17.80
2022-08-09T05:37:06.565Z,17.80
2022-08-09T05:39:43.750Z,17.80
2022-08-09T05:42:21.917Z,17.90
2022-08-09T05:44:55.564Z,17.90
2022-08-09T05:47:24.458Z,18.00
2022-08-09T05:50:25.101Z,18.00
2022-08-09T05:52:43.026Z,18.00
2022-08-09T05:55:20.282Z,18.10
2022-08-09T05:57:56.401Z,18.10
2022-08-09T06:00:28.976Z,18.20
2022-08-09T06:02:59.520Z,18.30
2022-08-09T06:05:49.759Z,18.40
2022-08-09T06:08:19.374Z,18.50
2022-08-09T06:10:51.891Z,18.60
2022-08-09T06:13:20.526Z,18.70
2022-08-09T06:15:53.959Z,18.90
2022-08-09T06:18:25.981Z,19.10
2022-08-09T06:20:58.624Z,19.20
2022-08-09T06:23:58.857Z,19.50
2022-08-09T06:26:20.821Z,21.70
2022-08-09T06:29:00.463Z,24.20
2022-08-09T06:31:40.567Z,25.60
2022-08-09T06:34:19.374Z,26.50
2022-08-09T06:36:48.556Z,27.40
2022-08-09T06:39:18.005Z,28.20
2022-08-09T06:41:58.898Z,28.40
2022-08-09T06:44:37.261Z,29.20
2022-08-09T06:47:04.672Z,28.90
2022-08-09T06:50:11.650Z,28.90
2022-08-09T06:52:26.936Z,28.90
2022-08-09T06:54:56.201Z,29.30
2022-08-09T06:58:01.653Z,29.60
2022-08-09T07:00:50.246Z,30.00
2022-08-09T07:03:05.358Z,30.00
2022-08-09T07:06:03.090Z,30.00
2022-08-09T07:08:24.814Z,30.10
2022-08-09T07:10:56.832Z,30.30
2022-08-09T07:13:29.620Z,30.50
2022-08-09T07:16:41.370Z,30.30
2022-08-09T07:18:44.611Z,29.90
2022-08-09T07:21:20.012Z,29.50
2022-08-09T07:23:57.735Z,29.20
2022-08-09T07:26:25.350Z,28.70
2022-08-09T07:29:08.558Z,28.60
2022-08-09T07:31:45.969Z,28.30
2022-08-09T07:34:20.520Z,27.90
2022-08-09T07:36:52.886Z,27.40
2022-08-09T07:39:19.885Z,26.90
2022-08-09T07:41:50.127Z,26.80
2022-08-09T07:44:30.269Z,26.80
2022-08-09T07:47:09.842Z,27.00
2022-08-09T07:50:04.388Z,26.70
2022-08-09T07:52:25.511Z,26.40
2022-08-09T07:54:52.204Z,26.20
2022-08-09T07:57:20.997Z,26.30
2022-08-09T08:00:02.655Z,26.30
2022-08-09T08:02:32.943Z,26.50
2022-08-09T08:04:59.914Z,26.70
2022-08-09T08:08:44.047Z,26.70
2022-08-09T08:10:18.278Z,26.70
2022-08-09T08:12:46.472Z,26.80
2022-08-09T08:15:23.252Z,26.80
2022-08-09T08:17:52.992Z,26.70
2022-08-09T08:20:29.709Z,26.70
2022-08-09T08:23:15.946Z,26.60
2022-08-09T08:25:49.907Z,26.50
2022-08-09T08:28:25.725Z,26.70
2022-08-09T08:31:01.561Z,26.80
2022-08-09T08:33:52.292Z,26.90
2022-08-09T08:36:28.275Z,27.10
2022-08-09T08:38:56.669Z,27.20
2022-08-09T08:41:24.419Z,27.20
2022-08-09T08:44:13.754Z,27.30
2022-08-09T08:47:03.278Z,27.30
2022-08-09T08:49:38.877Z,27.30
2022-08-09T08:55:06.232Z,27.40
2022-08-09T08:57:34.784Z,27.50
2022-08-09T09:00:12.627Z,27.60
2022-08-09T09:02:49.912Z,27.60
2022-08-09T09:05:33.053Z,27.60
2022-08-09T09:08:29.819Z,27.50
2022-08-09T09:11:01.010Z,27.60
2022-08-09T09:13:41.910Z,27.60
2022-08-09T09:16:16.070Z,27.70
2022-08-09T09:18:51.892Z,27.80
2022-08-09T09:21:31.499Z,27.70
2022-08-09T09:24:10.322Z,27.60
2022-08-09T09:27:00.351Z,27.70
2022-08-09T09:30:11.404Z,27.70
2022-08-09T09:32:34.175Z,27.60
2022-08-09T09:35:09.936Z,27.60
2022-08-09T09:37:40.377Z,27.50
2022-08-09T09:40:11.565Z,27.50
2022-08-09T09:42:39.159Z,27.40
2022-08-09T09:45:10.146Z,27.40
2022-08-09T09:47:56.153Z,27.50
2022-08-09T09:50:49.727Z,27.60
2022-08-09T09:53:21.644Z,27.60
2022-08-09T09:56:08.337Z,27.70
2022-08-09T09:58:53.437Z,27.80
2022-08-09T10:01:30.310Z,27.80
2022-08-09T10:04:09.501Z,27.70
2022-08-09T10:06:43.418Z,27.50
2022-08-09T10:09:22.883Z,27.50
2022-08-09T10:12:14.650Z,27.50
2022-08-09T10:14:51.751Z,27.60
2022-08-09T10:17:50.523Z,27.70
2022-08-09T10:20:27.701Z,27.70
2022-08-09T10:23:24.909Z,27.70
2022-08-09T10:26:04.336Z,27.80
2022-08-09T10:28:38.626Z,27.70
2022-08-09T10:34:09.516Z,27.70
2022-08-09T10:36:49.800Z,27.70
2022-08-09T10:39:23.194Z,27.80
2022-08-09T10:41:57.510Z,27.80
2022-08-09T10:44:30.311Z,27.90
2022-08-09T10:48:26.052Z,27.80
2022-08-09T10:51:06.593Z,27.90
2022-08-09T10:53:58.211Z,28.00
2022-08-09T10:56:31.570Z,28.00
2022-08-09T10:58:59.451Z,28.10
2022-08-09T11:03:13.914Z,28.10
2022-08-09T11:04:33.997Z,28.10
2022-08-09T11:07:02.159Z,28.20
2022-08-09T11:09:38.799Z,28.20
2022-08-09T11:12:30.355Z,28.30
2022-08-09T11:15:02.838Z,28.40
2022-08-09T11:17:32.631Z,28.40
2022-08-09T11:20:11.382Z,28.40
2022-08-09T11:22:57.130Z,28.40
2022-08-09T11:25:44.555Z,28.50
2022-08-09T11:28:34.490Z,28.50
2022-08-09T11:31:49.865Z,28.50
2022-08-09T11:34:48.869Z,28.50
2022-08-09T11:37:41.120Z,28.50
2022-08-09T11:40:11.401Z,28.60
2022-08-09T11:42:43.380Z,28.60
2022-08-09T11:45:42.760Z,28.70
2022-08-09T11:48:26.684Z,28.70
2022-08-09T11:52:54.012Z,28.80
2022-08-09T11:53:59.781Z,28.70
2022-08-09T11:56:41.454Z,28.70
2022-08-09T11:59:11.632Z,28.80
2022-08-09T12:02:34.909Z,28.70
2022-08-09T12:04:32.200Z,28.60
2022-08-09T12:07:07.929Z,28.70
2022-08-09T12:09:39.182Z,28.80
2022-08-09T12:12:28.517Z,28.80
2022-08-09T12:15:04.410Z,28.90
2022-08-09T12:17:44.272Z,29.00
2022-08-09T12:20:22.369Z,29.10
2022-08-09T12:22:57.194Z,29.20
2022-08-09T12:25:37.572Z,29.10
2022-08-09T12:29:09.808Z,29.10
2022-08-09T12:30:57.690Z,29.00
2022-08-09T12:33:26.468Z,29.10
2022-08-09T12:36:31.486Z,29.20
2022-08-09T12:38:59.296Z,29.20
2022-08-09T12:41:39.748Z,29.20
2022-08-09T12:44:10.022Z,29.30
2022-08-09T12:46:49.068Z,29.30
2022-08-09T12:49:21.308Z,29.30
2022-08-09T12:52:01.541Z,29.40
2022-08-09T12:54:32.177Z,29.40
2022-08-09T12:57:01.078Z,29.50
2022-08-09T12:59:57.375Z,29.40
2022-08-09T13:02:17.793Z,29.40
2022-08-09T13:05:03.818Z,29.50
2022-08-09T13:07:50.897Z,29.60
2022-08-09T13:10:17.777Z,29.70
2022-08-09T13:13:09.003Z,29.70
2022-08-09T13:15:52.385Z,29.70
2022-08-09T13:18:20.785Z,29.70
2022-08-09T13:21:20.503Z,29.60
2022-08-09T13:24:16.226Z,29.40
2022-08-09T13:26:49.719Z,29.40
2022-08-09T13:29:28.429Z,29.40
2022-08-09T13:32:19.458Z,29.50
2022-08-09T13:34:48.181Z,29.60
2022-08-09T13:37:51.423Z,29.70
2022-08-09T13:41:50.972Z,29.70
2022-08-09T13:42:55.751Z,29.70
2022-08-09T13:45:32.170Z,29.70
2022-08-09T13:48:11.849Z,29.80
2022-08-09T13:50:44.831Z,29.80
2022-08-09T13:53:16.558Z,29.90
2022-08-09T13:55:44.867Z,30.00
2022-08-09T13:58:14.810Z,30.00
2022-08-09T14:00:49.989Z,30.00
2022-08-09T14:04:03.413Z,30.00
2022-08-09T14:06:26.753Z,30.00
2022-08-09T14:08:56.210Z,30.10
2022-08-09T14:11:24.903Z,30.10
2022-08-09T14:14:24.209Z,30.10
2022-08-09T14:16:38.653Z,30.10
2022-08-09T14:19:09.813Z,30.10
2022-08-09T14:21:36.620Z,30.10
2022-08-09T14:24:10.244Z,30.20
2022-08-09T14:26:51.298Z,30.20
2022-08-09T14:29:25.477Z,30.20
2022-08-09T14:32:11.214Z,30.20
2022-08-09T14:34:41.086Z,29.80
2022-08-09T14:37:08.550Z,29.70
2022-08-09T14:39:46.363Z,29.80
2022-08-09T14:42:31.102Z,29.80
2022-08-09T14:46:46.046Z,29.80
2022-08-09T14:47:58.267Z,29.70
2022-08-09T14:50:28.132Z,29.70
2022-08-09T14:52:57.733Z,29.80
2022-08-09T14:55:24.679Z,29.80
2022-08-09T14:57:51.710Z,29.90
2022-08-09T15:00:21.929Z,29.90
2022-08-09T15:02:51.838Z,30.00
2022-08-09T15:05:19.530Z,29.90
2022-08-09T15:07:55.964Z,29.80
2022-08-09T15:10:26.300Z,29.90
2022-08-09T15:12:56.506Z,29.90
2022-08-09T15:15:24.474Z,29.80
2022-08-09T15:18:00.523Z,29.80
2022-08-09T15:21:55.043Z,29.80
2022-08-09T15:24:02.153Z,29.80
2022-08-09T15:26:05.155Z,29.80
2022-08-09T15:28:35.975Z,30.00
2022-08-09T15:31:17.944Z,29.90
2022-08-09T15:34:18.264Z,29.90
2022-08-09T15:36:34.746Z,29.90
2022-08-09T15:39:01.406Z,29.70
2022-08-09T15:41:31.393Z,29.70
2022-08-09T15:44:02.389Z,29.70
2022-08-09T15:46:33.491Z,29.70
2022-08-09T15:49:22.875Z,29.60
2022-08-09T15:52:05.144Z,29.60
2022-08-09T15:54:46.390Z,29.50
2022-08-09T15:57:35.816Z,29.50
2022-08-09T16:00:25.538Z,29.50
2022-08-09T16:02:54.767Z,29.40
2022-08-09T16:05:54.695Z,29.40
2022-08-09T16:08:29.542Z,29.40
2022-08-09T16:10:57.139Z,29.40
2022-08-09T16:14:02.863Z,29.30
2022-08-09T16:16:18.370Z,29.20
2022-08-09T16:18:47.967Z,29.20
2022-08-09T16:21:25.179Z,29.30
2022-08-09T16:23:58.883Z,29.30
2022-08-09T16:26:34.052Z,29.30
2022-08-09T16:29:12.396Z,29.40
2022-08-09T16:32:18.468Z,29.40
2022-08-09T16:34:54.407Z,29.30
2022-08-09T16:37:55.328Z,29.30
2022-08-09T16:40:14.385Z,29.30
2022-08-09T16:42:56.344Z,29.30
2022-08-09T16:45:23.101Z,29.20
2022-08-09T16:48:39.465Z,29.10
2022-08-09T16:50:38.620Z,29.00
2022-08-09T16:53:08.942Z,28.90
2022-08-09T16:55:59.859Z,28.90
2022-08-09T16:58:25.396Z,28.90
2022-08-09T17:00:52.812Z,28.90
2022-08-09T17:03:21.807Z,28.90
2022-08-09T17:06:08.263Z,28.80
2022-08-09T17:09:01.499Z,28.80
2022-08-09T17:11:37.684Z,28.80
2022-08-09T17:14:25.881Z,28.80
2022-08-09T17:16:55.620Z,28.70
2022-08-09T17:19:22.354Z,28.70
2022-08-09T17:21:54.435Z,28.70
2022-08-09T17:24:30.210Z,28.60
2022-08-09T17:27:00.091Z,28.50
2022-08-09T17:29:31.912Z,28.40
2022-08-09T17:32:05.105Z,28.40
2022-08-09T17:35:04.245Z,28.40
2022-08-09T17:37:19.281Z,28.30
2022-08-09T17:39:52.529Z,28.30
2022-08-09T17:42:41.849Z,28.30
2022-08-09T17:45:15.666Z,28.30
2022-08-09T17:47:49.076Z,28.30
2022-08-09T17:50:36.527Z,28.20
2022-08-09T17:53:19.681Z,28.20
2022-08-09T17:55:53.012Z,28.20
2022-08-09T17:58:26.832Z,28.20
2022-08-09T18:00:56.593Z,28.10
2022-08-09T18:03:25.388Z,28.10
2022-08-09T18:05:54.356Z,28.00
2022-08-09T18:08:27.252Z,28.00
2022-08-09T18:11:01.481Z,28.00
2022-08-09T18:13:39.258Z,27.90
2022-08-09T18:16:29.202Z,27.90
2022-08-09T18:18:59.532Z,27.90
2022-08-09T18:21:41.446Z,27.90
2022-08-09T18:24:14.665Z,27.80
2022-08-09T18:26:45.956Z,27.70
2022-08-09T18:30:36.194Z,27.60
2022-08-09T18:32:03.048Z,27.50
2022-08-09T18:34:32.613Z,27.50
2022-08-09T18:37:01.611Z,27.50
2022-08-09T18:39:32.828Z,27.50
2022-08-09T18:42:08.900Z,27.40
2022-08-09T18:44:38.514Z,27.40
2022-08-09T18:47:15.031Z,27.30
2022-08-09T18:49:46.875Z,27.20
2022-08-09T18:52:18.906Z,27.10
2022-08-09T18:54:53.481Z,27.00
2022-08-09T18:57:21.986Z,27.00
2022-08-09T18:59:57.598Z,26.90
2022-08-09T19:02:30.476Z,26.90
2022-08-09T19:05:04.076Z,26.80
2022-08-09T19:07:51.534Z,26.70
2022-08-09T19:10:29.142Z,26.60
2022-08-09T19:13:20.389Z,26.50
2022-08-09T19:15:55.788Z,26.40
2022-08-09T19:18:34.109Z,26.30
2022-08-09T19:21:10.815Z,26.30
2022-08-09T19:24:33.117Z,26.20
2022-08-09T19:26:31.791Z,26.20
2022-08-09T19:29:09.644Z,26.10
2022-08-09T19:31:45.039Z,26.00
2022-08-09T19:34:21.782Z,26.00
2022-08-09T19:36:57.411Z,25.90
2022-08-09T19:39:28.789Z,25.90
2022-08-09T19:42:14.442Z,25.80
2022-08-09T19:44:44.897Z,25.80
2022-08-09T19:47:22.854Z,25.80
2022-08-09T19:50:09.092Z,25.70
2022-08-09T19:52:49.484Z,25.60
2022-08-09T19:55:30.860Z,25.50
2022-08-09T19:58:15.867Z,25.50
2022-08-09T20:00:45.600Z,25.40
2022-08-09T20:04:27.892Z,25.40
2022-08-09T20:06:00.441Z,25.40
2022-08-09T20:08:34.965Z,25.30
2022-08-09T20:11:04.168Z,25.30
2022-08-09T20:13:36.827Z,25.20
2022-08-09T20:16:38.057Z,25.10
2022-08-09T20:19:42.501Z,25.10
2022-08-09T20:21:54.972Z,25.00
2022-08-09T20:24:29.899Z,25.10
2022-08-09T20:27:08.051Z,25.00
2022-08-09T20:29:39.273Z,25.00
2022-08-09T20:32:28.774Z,24.90
2022-08-09T20:35:03.130Z,24.80
2022-08-09T20:37:37.738Z,24.80
2022-08-09T20:40:26.544Z,24.80
2022-08-09T20:43:11.891Z,24.80
2022-08-09T20:46:00.531Z,24.80
2022-08-09T20:48:31.011Z,24.70
2022-08-09T20:51:01.359Z,24.70
2022-08-09T20:53:38.558Z,24.60
2022-08-09T20:56:20.135Z,24.60
2022-08-09T20:58:54.294Z,24.60
2022-08-09T21:01:34.342Z,24.50
2022-08-09T21:05:56.696Z,24.50
2022-08-09T21:07:11.815Z,24.50
2022-08-09T21:09:45.616Z,24.50
2022-08-09T21:14:49.421Z,24.50
2022-08-09T21:18:23.353Z,24.40
2022-08-09T21:20:18.833Z,24.40
2022-08-09T21:22:54.478Z,24.30
2022-08-09T21:25:39.959Z,24.30
2022-08-09T21:28:15.809Z,24.30
2022-08-09T21:30:43.000Z,24.30
2022-08-09T21:33:12.214Z,24.30
2022-08-09T21:35:51.209Z,24.20
2022-08-09T21:38:21.057Z,24.20
2022-08-09T21:40:58.257Z,24.20
2022-08-09T21:43:56.095Z,24.20
2022-08-09T21:46:16.278Z,24.10
2022-08-09T21:48:49.314Z,24.10
2022-08-09T21:51:24.554Z,24.10
2022-08-09T21:54:07.889Z,24.00
2022-08-09T21:56:44.547Z,24.00
2022-08-09T21:59:23.316Z,24.00
2022-08-09T22:01:59.385Z,24.00
2022-08-09T22:04:55.497Z,24.00
2022-08-09T22:07:23.285Z,24.00
2022-08-09T22:10:05.141Z,24.00
2022-08-09T22:12:32.235Z,23.90
2022-08-09T22:15:01.568Z,23.90
2022-08-09T22:17:31.900Z,23.80
2022-08-09T22:20:00.621Z,23.80
2022-08-09T22:22:29.119Z,23.80
2022-08-09T22:26:08.247Z,23.70
2022-08-09T22:27:44.771Z,23.60
2022-08-09T22:30:11.990Z,23.50
2022-08-09T22:32:41.326Z,23.40
2022-08-09T22:36:01.793Z,23.40
2022-08-09T22:38:07.328Z,23.30
2022-08-09T22:40:37.543Z,23.20
2022-08-09T22:43:16.747Z,23.30
2022-08-09T22:48:10.963Z,23.20
2022-08-09T22:48:38.849Z,23.10
2022-08-09T22:51:24.098Z,23.10
2022-08-09T22:54:01.030Z,23.10
2022-08-09T22:56:34.005Z,23.10
2022-08-09T22:59:58.289Z,23.10
2022-08-09T23:01:52.641Z,23.00
2022-08-09T23:04:21.591Z,23.00
2022-08-09T23:07:11.319Z,22.90
2022-08-09T23:09:43.158Z,22.90
2022-08-09T23:12:12.163Z,22.90
2022-08-09T23:14:42.527Z,22.90
2022-08-09T23:17:10.271Z,23.00
2022-08-09T23:20:00.857Z,23.00
2022-08-09T23:22:26.503Z,22.90
2022-08-09T23:24:57.645Z,22.90
2022-08-09T23:27:24.353Z,22.90
2022-08-09T23:29:50.990Z,22.90
2022-08-09T23:32:19.825Z,22.80
2022-08-09T23:34:48.975Z,22.70
2022-08-09T23:37:19.839Z,22.70
2022-08-09T23:39:48.443Z,22.60
2022-08-09T23:42:17.445Z,22.60
2022-08-09T23:44:44.254Z,22.60
2022-08-09T23:47:13.304Z,22.60
2022-08-09T23:49:42.146Z,22.50
2022-08-09T23:52:08.991Z,22.50
2022-08-09T23:54:35.762Z,22.50
2022-08-09T23:57:02.521Z,22.40
2022-08-09T23:59:51.118Z,22.40
